Wiggins, Mississippi
Current Conditions -  °F | °C
As of 1:53 PM on Wednesday 26 Nov 2014 (Local Time) from KHBG Reporting Station
Clear Clear  
Wind Chill: 65°   Ceiling: Unl
Heat Index: 65°   Visibility: 10mi
Dew Point: 31°   Wind: 13mph
Humidity: 28%   Direction: 240°WSW
Pressure: 30.14"   Gusts: NA
Location:  30.86°N, 89.14°W
Report Text: KHBG 261953Z AUTO 24011KT 10SM CLR 18/M01 A3014 RMK AO2 SLP206 T01831006
Loading
Personal Weather Stations






























Interactive Weather Map New forecast layout! Learn more

10-Day Weather Forecast

Advertisements
Track Severe Weather on mobile